createdAt,value
2022-10-02T00:00:38.140Z,92.71
2022-10-02T00:03:19.527Z,92.36
2022-10-02T00:05:59.382Z,92.80
2022-10-02T00:08:33.504Z,92.49
2022-10-02T00:11:21.267Z,92.98
2022-10-02T00:14:05.914Z,92.97
2022-10-02T00:16:42.847Z,92.95
2022-10-02T00:19:13.325Z,92.34
2022-10-02T00:21:59.051Z,93.00
2022-10-02T00:25:06.323Z,92.25
2022-10-02T00:28:00.288Z,92.40
2022-10-02T00:30:34.877Z,92.50
2022-10-02T00:33:28.236Z,92.84
2022-10-02T00:36:04.602Z,92.32
2022-10-02T00:38:42.120Z,93.04
2022-10-02T00:41:38.635Z,92.49
2022-10-02T00:44:24.285Z,93.45
2022-10-02T00:47:02.198Z,93.26
2022-10-02T00:50:29.254Z,93.45
2022-10-02T00:53:11.891Z,93.09
2022-10-02T00:56:01.743Z,93.49
2022-10-02T00:58:48.858Z,93.68
2022-10-02T01:01:30.656Z,93.27
2022-10-02T01:04:02.520Z,93.66
2022-10-02T01:06:31.317Z,93.11
2022-10-02T01:09:02.012Z,93.35
2022-10-02T01:11:31.639Z,93.08
2022-10-02T01:14:00.831Z,93.27
2022-10-02T01:16:29.697Z,93.25
2022-10-02T01:18:58.698Z,93.15
2022-10-02T01:21:45.641Z,93.12
2022-10-02T01:24:22.924Z,93.19
2022-10-02T01:26:51.907Z,93.12
2022-10-02T01:29:20.728Z,92.71
2022-10-02T01:31:49.827Z,92.92
2022-10-02T01:34:18.856Z,93.29
2022-10-02T01:36:47.795Z,93.16
2022-10-02T01:39:16.694Z,92.93
2022-10-02T01:41:46.036Z,92.72
2022-10-02T01:44:15.777Z,92.35
2022-10-02T01:47:10.457Z,91.91
2022-10-02T01:50:13.293Z,91.18
2022-10-02T01:53:08.995Z,90.72
2022-10-02T01:55:43.218Z,89.89
2022-10-02T01:58:20.325Z,90.20
2022-10-02T02:01:06.980Z,90.24
2022-10-02T02:03:49.126Z,90.59
2022-10-02T02:06:26.712Z,90.69
2022-10-02T02:09:13.354Z,91.55
2022-10-02T02:11:45.735Z,91.49
2022-10-02T02:14:21.523Z,91.56
2022-10-02T02:16:57.133Z,92.12
2022-10-02T02:19:35.326Z,92.61
2022-10-02T02:22:20.476Z,92.30
2022-10-02T02:25:08.666Z,92.61
2022-10-02T02:27:53.451Z,90.98
2022-10-02T02:30:23.502Z,90.53
2022-10-02T02:32:57.588Z,91.64
2022-10-02T02:35:42.442Z,91.80
2022-10-02T02:38:22.182Z,92.17
2022-10-02T02:40:52.571Z,92.28
2022-10-02T02:43:51.334Z,91.38
2022-10-02T02:46:31.246Z,91.25
2022-10-02T02:49:08.738Z,91.20
2022-10-02T02:51:43.866Z,92.04
2022-10-02T02:54:24.918Z,91.59
2022-10-02T02:56:57.289Z,90.85
2022-10-02T02:59:32.001Z,90.55
2022-10-02T03:02:02.466Z,91.80
2022-10-02T03:04:31.846Z,91.23
2022-10-02T03:07:04.513Z,91.27
2022-10-02T03:09:34.515Z,91.25
2022-10-02T03:12:20.853Z,90.80
2022-10-02T03:15:02.714Z,91.42
2022-10-02T03:18:06.301Z,91.91
2022-10-02T03:20:53.095Z,91.62
2022-10-02T03:23:26.653Z,90.81
2022-10-02T03:26:09.547Z,90.40
2022-10-02T03:28:57.192Z,89.34
2022-10-02T03:31:31.734Z,88.86
2022-10-02T03:34:02.988Z,89.21
2022-10-02T03:36:32.400Z,89.61
2022-10-02T03:39:24.207Z,89.59
2022-10-02T03:41:52.571Z,88.82
2022-10-02T03:44:21.490Z,89.17
2022-10-02T03:46:50.450Z,88.87
2022-10-02T03:49:19.393Z,87.91
2022-10-02T03:51:48.288Z,86.85
2022-10-02T03:54:20.720Z,86.26
2022-10-02T03:57:04.147Z,86.29
2022-10-02T03:59:56.194Z,86.47
2022-10-02T04:02:28.848Z,86.17
2022-10-02T04:05:06.994Z,86.45
2022-10-02T04:07:40.688Z,85.04
2022-10-02T04:10:14.390Z,84.38
2022-10-02T04:12:49.746Z,83.93
2022-10-02T04:15:31.607Z,82.36
2022-10-02T04:18:21.656Z,83.64
2022-10-02T04:20:50.476Z,84.68
2022-10-02T04:23:27.109Z,84.56
2022-10-02T04:26:34.592Z,86.78
2022-10-02T04:29:19.234Z,84.72
2022-10-02T04:31:57.830Z,81.42
2022-10-02T04:34:28.640Z,80.86
2022-10-02T04:37:23.974Z,83.00
2022-10-02T04:40:14.545Z,84.09
2022-10-02T04:42:55.220Z,84.11
2022-10-02T04:45:54.291Z,84.56
2022-10-02T04:49:01.496Z,86.43
2022-10-02T04:51:56.133Z,86.00
2022-10-02T04:54:24.864Z,86.27
2022-10-02T04:57:23.561Z,87.11
2022-10-02T05:00:16.666Z,87.23
2022-10-02T05:03:18.471Z,87.42
2022-10-02T05:06:16.407Z,87.62
2022-10-02T05:09:09.798Z,88.40
2022-10-02T05:11:56.595Z,89.60
2022-10-02T05:14:34.042Z,89.98
2022-10-02T05:17:27.263Z,89.06
2022-10-02T05:19:58.793Z,89.23
2022-10-02T05:22:33.674Z,88.94
2022-10-02T05:25:02.406Z,88.64
2022-10-02T05:28:08.717Z,88.32
2022-10-02T05:31:04.713Z,89.32
2022-10-02T05:33:47.410Z,88.64
2022-10-02T05:36:55.593Z,89.19
2022-10-02T05:39:33.532Z,89.39
2022-10-02T05:42:28.385Z,89.83
2022-10-02T05:45:23.474Z,89.32
2022-10-02T05:47:56.237Z,88.07
2022-10-02T05:50:31.409Z,87.20
2022-10-02T05:53:16.917Z,87.21
2022-10-02T05:56:16.199Z,87.59
2022-10-02T05:59:01.153Z,86.77
2022-10-02T06:01:45.550Z,86.16
2022-10-02T06:04:41.733Z,86.54
2022-10-02T06:07:15.013Z,86.20
2022-10-02T06:09:53.731Z,85.66
2022-10-02T06:12:40.600Z,86.15
2022-10-02T06:15:17.910Z,87.40
2022-10-02T06:18:33.822Z,86.22
2022-10-02T06:21:08.954Z,87.39
2022-10-02T06:23:53.098Z,88.02
2022-10-02T06:27:01.632Z,87.55
2022-10-02T06:30:15.941Z,87.77
2022-10-02T06:32:56.314Z,88.17
2022-10-02T06:36:02.231Z,88.50
2022-10-02T06:39:16.058Z,89.49
2022-10-02T06:41:50.993Z,89.43
2022-10-02T06:44:49.714Z,88.99
2022-10-02T06:47:49.694Z,89.07
2022-10-02T06:50:28.100Z,89.46
2022-10-02T06:53:03.093Z,90.02
2022-10-02T06:55:55.033Z,90.19
2022-10-02T06:58:56.027Z,90.09
2022-10-02T07:01:56.417Z,89.68
2022-10-02T07:04:42.145Z,89.98
2022-10-02T07:07:30.742Z,90.32
2022-10-02T07:10:29.441Z,90.41
2022-10-02T07:13:33.172Z,90.81
2022-10-02T07:16:19.970Z,91.10
2022-10-02T07:19:00.010Z,91.37
2022-10-02T07:22:20.256Z,91.67
2022-10-02T07:24:59.989Z,91.84
2022-10-02T07:27:55.792Z,91.96
2022-10-02T07:30:25.831Z,91.97
2022-10-02T07:33:07.060Z,91.97
2022-10-02T07:36:10.639Z,91.79
2022-10-02T07:39:00.042Z,92.00
2022-10-02T07:41:34.934Z,91.98
2022-10-02T07:44:18.577Z,92.35
2022-10-02T07:47:02.746Z,92.27
2022-10-02T07:49:40.781Z,92.25
2022-10-02T07:52:24.881Z,92.40
2022-10-02T07:55:09.506Z,92.77
2022-10-02T07:57:54.025Z,92.53
2022-10-02T08:00:27.188Z,92.39
2022-10-02T08:03:03.295Z,92.13
2022-10-02T08:05:37.225Z,92.25
2022-10-02T08:08:18.179Z,92.41
2022-10-02T08:10:52.340Z,92.40
2022-10-02T08:13:28.945Z,92.29
2022-10-02T08:15:57.979Z,92.17
2022-10-02T08:18:56.560Z,92.21
2022-10-02T08:21:26.937Z,92.15
2022-10-02T08:24:24.881Z,92.46
2022-10-02T08:26:59.875Z,92.02
2022-10-02T08:29:43.262Z,92.66
2022-10-02T08:32:13.300Z,92.27
2022-10-02T08:34:44.698Z,92.57
2022-10-02T08:37:39.815Z,92.63
2022-10-02T08:40:33.752Z,92.69
2022-10-02T08:43:27.143Z,92.54
2022-10-02T08:46:17.418Z,92.42
2022-10-02T08:49:02.523Z,92.42
2022-10-02T08:52:28.262Z,92.64
2022-10-02T08:55:18.911Z,92.77
2022-10-02T08:58:15.431Z,92.93
2022-10-02T09:00:47.039Z,93.22
2022-10-02T09:03:34.540Z,92.81
2022-10-02T09:06:18.366Z,92.76
2022-10-02T09:08:58.952Z,92.88
2022-10-02T09:12:01.290Z,93.01
2022-10-02T09:14:53.537Z,92.53
2022-10-02T09:17:37.201Z,92.81
2022-10-02T09:20:24.377Z,92.24
2022-10-02T09:23:11.427Z,92.26
2022-10-02T09:25:56.253Z,92.45
2022-10-02T09:29:02.554Z,92.62
2022-10-02T09:31:49.643Z,92.58
2022-10-02T09:34:55.651Z,92.96
2022-10-02T09:37:45.795Z,92.83
2022-10-02T09:40:14.550Z,93.07
2022-10-02T09:43:16.085Z,93.52
2022-10-02T09:46:12.439Z,92.95
2022-10-02T09:49:16.513Z,92.87
2022-10-02T09:52:15.880Z,92.97
2022-10-02T09:54:54.549Z,93.28
2022-10-02T09:57:41.437Z,93.60
2022-10-02T10:00:50.191Z,93.39
2022-10-02T10:03:36.954Z,93.11
2022-10-02T10:06:36.999Z,93.68
2022-10-02T10:09:12.042Z,93.62
2022-10-02T10:12:11.518Z,93.29
2022-10-02T10:15:09.249Z,93.38
2022-10-02T10:18:06.097Z,93.77
2022-10-02T10:21:10.999Z,93.47
2022-10-02T10:24:20.105Z,93.68
2022-10-02T10:27:14.399Z,93.41
2022-10-02T10:30:07.593Z,93.23
2022-10-02T10:32:45.168Z,93.56
2022-10-02T10:35:53.045Z,93.52
2022-10-02T10:38:39.285Z,93.26
2022-10-02T10:41:48.112Z,93.35
2022-10-02T10:44:32.656Z,93.96
2022-10-02T10:47:20.918Z,93.53
2022-10-02T10:50:18.814Z,93.76
2022-10-02T10:53:08.857Z,93.20
2022-10-02T10:56:07.846Z,93.63
2022-10-02T10:59:01.243Z,93.94
2022-10-02T11:01:40.328Z,93.23
2022-10-02T11:04:46.597Z,93.41
2022-10-02T11:07:45.500Z,93.90
2022-10-02T11:10:30.264Z,93.59
2022-10-02T11:13:03.240Z,93.61
2022-10-02T11:15:53.684Z,94.02
2022-10-02T11:18:53.351Z,93.59
2022-10-02T11:21:47.402Z,94.13
2022-10-02T11:24:44.720Z,93.69
2022-10-02T11:27:22.671Z,93.99
2022-10-02T11:30:21.233Z,93.53
2022-10-02T11:33:12.430Z,94.15
2022-10-02T11:36:10.416Z,94.19
2022-10-02T11:39:05.098Z,94.15
2022-10-02T11:41:47.318Z,94.10
2022-10-02T11:44:31.387Z,93.82
2022-10-02T11:47:30.585Z,93.64
2022-10-02T11:50:25.496Z,93.58
2022-10-02T11:53:29.905Z,93.67
2022-10-02T11:56:23.237Z,93.81
2022-10-02T11:59:28.253Z,93.55
2022-10-02T12:02:12.368Z,93.59
2022-10-02T12:05:09.208Z,94.07
2022-10-02T12:07:53.814Z,93.64
2022-10-02T12:10:40.070Z,94.07
2022-10-02T12:13:19.472Z,93.50
2022-10-02T12:16:14.233Z,93.52
2022-10-02T12:19:13.427Z,93.58
2022-10-02T12:22:20.986Z,93.42
2022-10-02T12:25:17.682Z,93.39
2022-10-02T12:28:04.522Z,94.02
2022-10-02T12:31:12.590Z,93.77
2022-10-02T12:34:05.164Z,93.71
2022-10-02T12:37:09.055Z,93.99
2022-10-02T12:39:52.109Z,93.51
2022-10-02T12:42:33.057Z,94.03
2022-10-02T12:45:32.051Z,93.44
2022-10-02T12:48:27.452Z,94.03
2022-10-02T12:51:39.228Z,94.14
2022-10-02T12:54:23.443Z,93.87
2022-10-02T12:57:10.564Z,93.62
2022-10-02T13:00:02.053Z,93.66
2022-10-02T13:03:02.016Z,93.55
2022-10-02T13:06:04.677Z,94.22
2022-10-02T13:08:47.551Z,94.20
2022-10-02T13:11:56.223Z,93.98
2022-10-02T13:15:03.529Z,94.10
2022-10-02T13:18:27.555Z,94.04
2022-10-02T13:21:09.474Z,93.85
2022-10-02T13:23:49.757Z,94.21
2022-10-02T13:26:36.715Z,93.76
2022-10-02T13:29:09.008Z,94.00
2022-10-02T13:31:57.437Z,94.39
2022-10-02T13:35:01.546Z,94.03
2022-10-02T13:37:55.781Z,94.00
2022-10-02T13:41:06.431Z,94.06
2022-10-02T13:43:44.173Z,93.99
2022-10-02T13:46:13.870Z,94.28
2022-10-02T13:48:58.917Z,94.47
2022-10-02T13:52:06.579Z,94.47
2022-10-02T13:55:06.180Z,94.24
2022-10-02T13:58:17.531Z,94.61
2022-10-02T14:01:14.254Z,94.11
2022-10-02T14:03:55.600Z,94.46
2022-10-02T14:06:49.991Z,94.60
2022-10-02T14:09:24.524Z,94.49
2022-10-02T14:12:12.955Z,94.08
2022-10-02T14:15:18.487Z,93.91
2022-10-02T14:18:12.145Z,94.04
2022-10-02T14:21:02.083Z,94.31
2022-10-02T14:23:36.975Z,94.25
2022-10-02T14:26:06.027Z,94.23
2022-10-02T14:29:02.051Z,94.71
2022-10-02T14:32:10.026Z,94.10
2022-10-02T14:35:12.243Z,94.45
2022-10-02T14:38:11.213Z,93.96
2022-10-02T14:41:07.594Z,93.99
2022-10-02T14:43:58.050Z,94.32
2022-10-02T14:46:38.773Z,94.20
2022-10-02T14:49:26.917Z,94.80
2022-10-02T14:52:13.700Z,94.60
2022-10-02T14:55:16.303Z,94.22
2022-10-02T14:57:51.506Z,94.10
2022-10-02T15:00:29.939Z,94.24
2022-10-02T15:03:27.892Z,94.68
2022-10-02T15:06:22.465Z,94.06
2022-10-02T15:09:02.366Z,94.33
2022-10-02T15:11:31.205Z,94.16
2022-10-02T15:14:11.153Z,94.11
2022-10-02T15:17:14.519Z,94.78
2022-10-02T15:19:52.366Z,93.98
2022-10-02T15:22:29.049Z,94.27
2022-10-02T15:25:00.376Z,94.18
2022-10-02T15:27:49.658Z,94.46
2022-10-02T15:30:24.547Z,94.33
2022-10-02T15:33:26.796Z,93.97
2022-10-02T15:36:11.641Z,94.67
2022-10-02T15:39:19.758Z,94.33
2022-10-02T15:42:07.527Z,94.17
2022-10-02T15:45:07.604Z,94.35
2022-10-02T15:47:49.844Z,94.38
2022-10-02T15:50:39.945Z,94.32
2022-10-02T15:53:18.248Z,93.99
2022-10-02T15:55:56.484Z,94.62
2022-10-02T15:59:06.376Z,94.57
2022-10-02T16:02:13.488Z,94.29
2022-10-02T16:05:03.573Z,94.15
2022-10-02T16:07:46.329Z,94.08
2022-10-02T16:10:26.068Z,94.42
2022-10-02T16:13:09.728Z,94.56
2022-10-02T16:16:01.733Z,94.58
2022-10-02T16:18:39.960Z,94.68
2022-10-02T16:21:08.758Z,93.96
2022-10-02T16:24:03.040Z,94.39
2022-10-02T16:26:43.936Z,93.94
2022-10-02T16:29:15.574Z,94.42
2022-10-02T16:32:08.903Z,94.34
2022-10-02T16:34:57.932Z,94.36
2022-10-02T16:37:35.744Z,94.46
2022-10-02T16:40:29.958Z,94.08
2022-10-02T16:43:19.924Z,94.31
2022-10-02T16:45:59.188Z,94.14
2022-10-02T16:48:42.849Z,94.06
2022-10-02T16:51:29.893Z,94.32
2022-10-02T16:54:25.380Z,93.97
2022-10-02T16:57:20.368Z,94.03
2022-10-02T17:00:05.965Z,94.50
2022-10-02T17:02:54.038Z,93.69
2022-10-02T17:05:43.376Z,94.46
2022-10-02T17:08:22.482Z,93.93
2022-10-02T17:11:09.951Z,93.85
2022-10-02T17:13:56.243Z,94.33
2022-10-02T17:17:03.347Z,94.33
2022-10-02T17:19:46.342Z,94.34
2022-10-02T17:22:44.645Z,94.14
2022-10-02T17:25:27.742Z,94.19
2022-10-02T17:28:18.312Z,94.46
2022-10-02T17:30:57.265Z,94.08
2022-10-02T17:33:32.807Z,93.99
2022-10-02T17:36:20.142Z,93.97
2022-10-02T17:39:04.107Z,94.14
2022-10-02T17:42:06.952Z,94.37
2022-10-02T17:44:52.701Z,94.13
2022-10-02T17:47:33.402Z,94.32
2022-10-02T17:50:08.022Z,93.97
2022-10-02T17:53:22.600Z,94.21
2022-10-02T17:56:31.419Z,93.75
2022-10-02T17:59:18.381Z,94.59
2022-10-02T18:02:09.085Z,93.97
2022-10-02T18:05:03.024Z,93.76
2022-10-02T18:07:31.992Z,93.96
2022-10-02T18:10:23.906Z,94.11
2022-10-02T18:12:56.434Z,94.54
2022-10-02T18:15:39.133Z,94.45
2022-10-02T18:18:30.053Z,93.79
2022-10-02T18:21:13.696Z,94.52
2022-10-02T18:24:09.928Z,93.91
2022-10-02T18:26:51.016Z,94.12
2022-10-02T18:29:32.936Z,94.12
2022-10-02T18:32:13.841Z,94.45
2022-10-02T18:35:09.738Z,94.22
2022-10-02T18:38:03.893Z,94.47
2022-10-02T18:40:50.171Z,94.71
2022-10-02T18:43:34.289Z,94.21
2022-10-02T18:46:21.632Z,94.27
2022-10-02T18:49:14.895Z,94.44
2022-10-02T18:51:47.092Z,94.35
2022-10-02T18:54:28.444Z,94.29
2022-10-02T18:57:09.229Z,94.71
2022-10-02T19:00:11.294Z,94.40
2022-10-02T19:03:05.385Z,94.14
2022-10-02T19:05:50.048Z,94.47
2022-10-02T19:08:56.495Z,94.15
2022-10-02T19:11:31.006Z,94.52
2022-10-02T19:14:02.796Z,94.17
2022-10-02T19:16:31.791Z,93.92
2022-10-02T19:19:12.716Z,94.06
2022-10-02T19:21:41.962Z,94.06
2022-10-02T19:24:19.290Z,94.13
2022-10-02T19:26:55.131Z,94.72
2022-10-02T19:29:49.216Z,93.81
2022-10-02T19:32:33.720Z,94.71
2022-10-02T19:35:07.146Z,94.54
2022-10-02T19:37:44.182Z,94.73
2022-10-02T19:40:35.758Z,94.34
2022-10-02T19:43:15.360Z,94.22
2022-10-02T19:45:52.648Z,94.06
2022-10-02T19:48:21.482Z,94.77
2022-10-02T19:50:53.417Z,94.45
2022-10-02T19:53:48.914Z,94.70
2022-10-02T19:56:47.720Z,93.83
2022-10-02T19:59:26.767Z,94.67
2022-10-02T20:02:01.160Z,94.15
2022-10-02T20:04:32.860Z,94.02
2022-10-02T20:07:02.694Z,94.40
2022-10-02T20:09:45.186Z,94.27
2022-10-02T20:12:16.610Z,94.69
2022-10-02T20:15:04.218Z,93.90
2022-10-02T20:17:33.203Z,94.63
2022-10-02T20:20:12.608Z,93.89
2022-10-02T20:23:15.661Z,94.45
2022-10-02T20:25:51.163Z,94.15
2022-10-02T20:28:46.531Z,94.15
2022-10-02T20:31:34.005Z,93.90
2022-10-02T20:34:13.473Z,94.42
2022-10-02T20:37:12.999Z,94.00
2022-10-02T20:40:20.008Z,94.45
2022-10-02T20:43:22.084Z,94.21
2022-10-02T20:46:08.564Z,94.37
2022-10-02T20:49:08.528Z,93.79
2022-10-02T20:51:43.979Z,94.08
2022-10-02T20:54:32.373Z,93.82
2022-10-02T20:57:33.674Z,94.42
2022-10-02T21:00:17.818Z,93.72
2022-10-02T21:03:14.053Z,94.23
2022-10-02T21:05:45.729Z,93.99
2022-10-02T21:08:33.204Z,93.78
2022-10-02T21:11:20.127Z,94.00
2022-10-02T21:14:23.476Z,94.31
2022-10-02T21:17:32.434Z,93.99
2022-10-02T21:20:27.826Z,93.63
2022-10-02T21:23:45.223Z,94.25
2022-10-02T21:26:43.984Z,93.69
2022-10-02T21:29:25.766Z,94.23
2022-10-02T21:32:17.583Z,93.92
2022-10-02T21:35:08.376Z,94.01
2022-10-02T21:37:59.102Z,94.20
2022-10-02T21:40:30.599Z,94.05
2022-10-02T21:43:24.069Z,93.84
2022-10-02T21:46:05.259Z,94.03
2022-10-02T21:49:19.675Z,93.57
2022-10-02T21:52:07.270Z,93.39
2022-10-02T21:55:13.343Z,94.03
2022-10-02T21:58:19.453Z,93.59
2022-10-02T22:01:29.134Z,94.04
2022-10-02T22:04:09.897Z,93.47
2022-10-02T22:06:44.964Z,93.88
2022-10-02T22:09:31.774Z,93.34
2022-10-02T22:12:06.728Z,93.65
2022-10-02T22:14:52.035Z,93.70
2022-10-02T22:17:26.841Z,93.52
2022-10-02T22:20:32.867Z,93.63
2022-10-02T22:23:33.319Z,93.61
2022-10-02T22:26:44.221Z,93.36
2022-10-02T22:29:30.390Z,94.13
2022-10-02T22:32:28.283Z,93.46
2022-10-02T22:35:08.654Z,93.94
2022-10-02T22:38:16.295Z,94.15
2022-10-02T22:40:51.789Z,93.40
2022-10-02T22:43:48.001Z,93.85
2022-10-02T22:46:22.710Z,94.08
2022-10-02T22:49:06.679Z,94.00
2022-10-02T22:51:45.566Z,94.16
2022-10-02T22:54:20.667Z,93.89
2022-10-02T22:57:04.727Z,93.82
2022-10-02T23:00:03.731Z,94.14
2022-10-02T23:02:38.156Z,93.89
2022-10-02T23:05:28.546Z,94.05
2022-10-02T23:08:15.922Z,93.34
2022-10-02T23:10:52.812Z,94.27
2022-10-02T23:13:40.135Z,94.06
2022-10-02T23:16:30.259Z,93.72
2022-10-02T23:19:15.395Z,93.45
2022-10-02T23:21:53.543Z,93.66
2022-10-02T23:24:58.374Z,93.45
2022-10-02T23:27:52.355Z,93.74
2022-10-02T23:30:23.182Z,93.53
2022-10-02T23:32:56.040Z,93.63
2022-10-02T23:35:36.741Z,93.59
2022-10-02T23:38:20.099Z,94.14
2022-10-02T23:41:41.054Z,93.96
2022-10-02T23:44:50.813Z,93.71
2022-10-02T23:47:22.328Z,93.54
2022-10-02T23:49:55.896Z,93.93
2022-10-02T23:52:56.610Z,93.50
2022-10-02T23:55:28.258Z,94.04
2022-10-02T23:58:00.221Z,93.91
